Time;durP1;ratioP1;P1;durP2;ratioP2;P2;SDS_P1;SDS_P2;PMS_P1;PMS_P2;Temp;Humidity;BMP_temperature;BMP_pressure;BME280_temperature;BME280_humidity;BME280_pressure;Samples;Min_cycle;Max_cycle;Signal;HPM_P1;HPM_P2
2021/05/31 00:01:27;;;;;;;5.10;4.70;;;14.50;99.90;;;;;;5013099;28;20393;-56
2021/05/31 00:03:54;;;;;;;5.32;4.93;;;14.40;99.90;;;;;;5012536;28;20026;-56
2021/05/31 00:06:22;;;;;;;6.55;5.00;;;14.40;99.90;;;;;;5012988;28;20072;-56
2021/05/31 00:08:49;;;;;;;5.60;4.65;;;14.50;99.90;;;;;;5012823;28;20026;-58
2021/05/31 00:11:20;;;;;;;6.07;4.40;;;14.40;99.90;;;;;;5013042;28;20424;-55
2021/05/31 00:13:47;;;;;;;;;;;14.30;99.90;;;;;;5013286;28;20018;-59
2021/05/31 00:16:15;;;;;;;4.60;4.22;;;14.40;99.90;;;;;;5012821;28;20362;-57
2021/05/31 00:18:42;;;;;;;6.70;4.78;;;14.40;99.90;;;;;;5012720;28;20028;-48
2021/05/31 00:21:10;;;;;;;5.20;4.70;;;14.40;99.90;;;;;;5016637;28;20029;-52
2021/05/31 00:23:37;;;;;;;5.93;5.43;;;14.60;99.90;;;;;;5016858;28;20076;-56
2021/05/31 00:26:04;;;;;;;5.80;4.43;;;14.80;99.90;;;;;;5016787;28;20092;-56
2021/05/31 00:28:32;;;;;;;5.00;4.70;;;14.90;99.90;;;;;;5016776;28;20391;-57
2021/05/31 00:30:59;;;;;;;5.35;4.45;;;15.00;99.90;;;;;;5016651;28;20030;-57
2021/05/31 00:33:27;;;;;;;7.07;4.20;;;15.00;99.90;;;;;;5016623;28;20391;-56
2021/05/31 00:35:54;;;;;;;6.93;4.88;;;15.00;99.90;;;;;;5016474;28;20462;-55
2021/05/31 00:38:21;;;;;;;7.22;4.80;;;15.10;99.90;;;;;;5016616;28;20022;-56
2021/05/31 00:40:48;;;;;;;4.70;4.30;;;15.30;99.90;;;;;;5016554;28;20053;-57
2021/05/31 00:43:16;;;;;;;6.65;4.05;;;15.30;99.90;;;;;;5016551;28;20033;-56
2021/05/31 00:45:43;;;;;;;4.93;4.38;;;15.30;99.90;;;;;;5016484;28;20076;-54
2021/05/31 00:48:10;;;;;;;5.53;4.60;;;15.40;99.90;;;;;;5016570;28;20362;-57
2021/05/31 00:50:38;;;;;;;5.25;4.30;;;15.50;99.90;;;;;;5016446;28;20029;-57
2021/05/31 00:53:05;;;;;;;4.38;3.80;;;15.50;99.80;;;;;;5016142;28;20033;-57
2021/05/31 00:55:33;;;;;;;5.55;4.30;;;15.60;99.50;;;;;;4998948;28;20029;-56
2021/05/31 00:58:02;;;;;;;6.38;4.90;;;15.60;99.20;;;;;;5016246;28;20037;-55
2021/05/31 01:00:29;;;;;;;5.82;4.47;;;15.80;99.50;;;;;;5016109;28;20046;-55
2021/05/31 01:02:56;;;;;;;8.25;4.38;;;15.90;98.90;;;;;;5016058;28;20022;-56
2021/05/31 01:05:24;;;;;;;4.55;4.13;;;16.00;99.20;;;;;;5015882;28;20136;-56
2021/05/31 01:07:59;;;;;;;5.32;4.25;;;16.10;98.40;;;;;;5015728;28;20392;-55
2021/05/31 01:10:41;;;;;;;7.13;4.15;;;16.20;99.10;;;;;;5015967;28;20527;-56
2021/05/31 01:13:43;;;;;;;6.43;4.57;;;16.30;98.60;;;;;;5015990;28;20049;-57
2021/05/31 01:16:23;;;;;;;5.35;4.85;;;16.40;98.40;;;;;;5016090;28;20037;-57
2021/05/31 01:18:51;;;;;;;4.35;3.95;;;16.50;98.50;;;;;;5015713;28;20034;-54
2021/05/31 01:21:50;;;;;;;6.35;3.80;;;16.70;98.20;;;;;;5015573;28;20029;-54
2021/05/31 01:24:52;;;;;;;6.18;4.18;;;16.90;98.00;;;;;;5015619;28;20387;-53
2021/05/31 01:27:25;;;;;;;5.40;3.60;;;16.80;98.00;;;;;;5015543;28;20053;-53
2021/05/31 01:30:08;;;;;;;9.60;3.92;;;16.80;97.30;;;;;;5015528;28;20034;-55
2021/05/31 01:32:48;;;;;;;6.10;3.50;;;16.80;97.30;;;;;;5014674;28;20025;-58
2021/05/31 01:35:41;;;;;;;7.63;4.00;;;16.90;97.70;;;;;;5015511;28;20465;-54
2021/05/31 01:38:11;;;;;;;5.45;3.90;;;17.00;97.70;;;;;;5013060;28;20034;-58
2021/05/31 01:40:39;;;;;;;7.23;4.63;;;17.00;97.10;;;;;;5015723;28;20048;-58
2021/05/31 01:43:08;;;;;;;8.38;4.55;;;17.10;97.60;;;;;;5015281;28;20280;-56
2021/05/31 01:45:35;;;;;;;6.72;3.67;;;17.00;98.00;;;;;;5015294;28;20018;-56
2021/05/31 01:48:04;;;;;;;7.30;4.40;;;17.10;98.10;;;;;;5015202;28;20018;-55
2021/05/31 01:50:31;;;;;;;6.63;3.85;;;17.10;97.90;;;;;;5014689;28;20113;-53
2021/05/31 01:53:00;;;;;;;4.20;3.30;;;17.30;97.80;;;;;;5014970;28;20073;-56
2021/05/31 01:55:28;;;;;;;8.65;4.57;;;17.40;97.90;;;;;;5014910;28;20026;-55
2021/05/31 01:57:55;;;;;;;5.38;3.85;;;17.50;97.70;;;;;;5014901;28;20040;-55
2021/05/31 02:00:27;;;;;;;7.25;4.20;;;17.50;97.70;;;;;;4996074;28;20125;-55
2021/05/31 02:02:54;;;;;;;4.65;3.90;;;17.60;97.60;;;;;;4995385;28;20026;-56
2021/05/31 02:05:22;;;;;;;5.78;3.85;;;17.50;97.50;;;;;;4995494;28;20026;-59
2021/05/31 02:07:49;;;;;;;5.18;3.75;;;17.50;97.30;;;;;;4995327;28;20026;-59
2021/05/31 02:10:17;;;;;;;4.85;3.72;;;17.50;97.60;;;;;;4995352;28;20019;-59
2021/05/31 02:12:54;;;;;;;5.78;4.10;;;17.70;97.70;;;;;;4995238;28;20031;-57
2021/05/31 02:16:01;;;;;;;4.55;3.97;;;17.70;97.60;;;;;;4995185;28;20061;-57
2021/05/31 02:18:38;;;;;;;4.00;3.70;;;17.80;97.20;;;;;;4974853;28;20042;-56
2021/05/31 02:21:11;;;;;;;4.30;3.90;;;17.90;97.10;;;;;;4995458;28;20023;-57
2021/05/31 02:23:41;;;;;;;5.88;3.97;;;17.60;97.40;;;;;;4995278;28;20030;-54
2021/05/31 02:26:15;;;;;;;6.30;3.90;;;17.70;97.10;;;;;;4994860;28;20026;-60
2021/05/31 02:28:44;;;;;;;5.05;3.80;;;17.70;96.60;;;;;;4995044;28;20026;-57
2021/05/31 02:31:12;;;;;;;5.78;4.10;;;17.70;96.80;;;;;;4995107;28;20022;-56
2021/05/31 02:33:39;;;;;;;5.07;3.70;;;17.70;97.10;;;;;;4994776;28;20037;-58
2021/05/31 02:36:06;;;;;;;4.20;3.80;;;17.80;97.00;;;;;;4994835;28;20030;-56
2021/05/31 02:38:34;;;;;;;6.32;3.92;;;17.70;97.20;;;;;;4994823;28;20099;-58
2021/05/31 02:41:01;;;;;;;5.70;4.15;;;17.70;97.20;;;;;;4994903;28;20431;-58
2021/05/31 02:43:29;;;;;;;5.53;3.95;;;17.80;96.60;;;;;;4994582;28;20018;-58
2021/05/31 02:45:56;;;;;;;6.97;3.90;;;17.80;96.90;;;;;;4994547;28;20037;-57
2021/05/31 02:48:25;;;;;;;4.28;3.70;;;17.90;96.20;;;;;;4994471;28;20034;-55
2021/05/31 02:50:56;;;;;;;5.50;3.72;;;18.10;96.30;;;;;;4994399;28;20101;-58
2021/05/31 02:53:29;;;;;;;6.45;4.30;;;18.00;96.40;;;;;;4994440;28;20047;-58
2021/05/31 02:55:57;;;;;;;4.65;4.22;;;18.00;96.60;;;;;;4994057;28;20039;-58
2021/05/31 02:58:24;;;;;;;4.80;4.40;;;18.00;95.90;;;;;;4996691;28;20525;-58
2021/05/31 03:00:51;;;;;;;6.60;4.70;;;18.20;96.40;;;;;;5013771;28;20032;-58
2021/05/31 03:03:19;;;;;;;7.10;4.25;;;18.20;95.60;;;;;;5013943;28;20387;-57
2021/05/31 03:05:46;;;;;;;5.25;3.95;;;18.10;96.10;;;;;;5013945;28;20014;-57
2021/05/31 03:08:13;;;;;;;4.60;4.20;;;18.10;95.30;;;;;;5013747;28;20029;-57
2021/05/31 03:10:41;;;;;;;5.32;4.25;;;18.20;96.00;;;;;;5013814;28;20346;-56
2021/05/31 03:13:08;;;;;;;4.65;3.50;;;18.10;94.90;;;;;;5013711;28;20026;-57
2021/05/31 03:15:35;;;;;;;4.63;4.18;;;18.10;95.20;;;;;;5013685;28;20080;-55
2021/05/31 03:18:04;;;;;;;5.78;3.50;;;18.00;95.70;;;;;;5013735;28;20057;-58
2021/05/31 03:20:31;;;;;;;4.53;3.83;;;18.10;96.10;;;;;;5013369;28;20030;-57
2021/05/31 03:23:01;;;;;;;3.92;3.50;;;18.10;95.50;;;;;;5013435;28;20495;-57
2021/05/31 03:25:28;;;;;;;3.38;3.10;;;18.20;95.90;;;;;;5013719;28;20455;-56
2021/05/31 03:27:58;;;;;;;4.07;3.67;;;18.20;95.50;;;;;;5013420;28;20068;-52
2021/05/31 03:30:26;;;;;;;6.13;3.58;;;18.10;96.20;;;;;;5013225;28;20018;-56
2021/05/31 03:32:53;;;;;;;7.53;3.67;;;18.20;95.60;;;;;;5013233;28;20079;-55
2021/05/31 03:35:21;;;;;;;4.53;3.85;;;18.10;95.50;;;;;;5013244;28;20030;-56
2021/05/31 03:37:48;;;;;;;6.22;3.63;;;18.20;96.50;;;;;;5013140;28;20041;-54
2021/05/31 03:40:21;;;;;;;4.80;3.65;;;18.30;95.40;;;;;;5013158;28;20513;-56
2021/05/31 03:42:53;;;;;;;4.30;3.90;;;18.10;95.30;;;;;;5013017;28;20034;-55
2021/05/31 03:45:22;;;;;;;7.93;4.00;;;18.00;95.40;;;;;;5013338;28;20507;-56
2021/05/31 03:47:50;;;;;;;4.15;3.72;;;17.90;96.00;;;;;;4995442;28;20069;-57
2021/05/31 03:50:18;;;;;;;3.97;3.45;;;18.10;96.00;;;;;;5013024;28;20136;-55
2021/05/31 03:52:49;;;;;;;5.35;3.60;;;18.10;95.70;;;;;;5012916;28;20108;-56
2021/05/31 03:55:17;;;;;;;4.75;3.72;;;18.20;95.60;;;;;;5012610;28;20026;-56
2021/05/31 03:57:45;;;;;;;4.85;3.78;;;18.10;95.40;;;;;;5012864;28;20173;-55
2021/05/31 04:00:13;;;;;;;5.88;3.53;;;17.90;96.00;;;;;;5012731;28;20052;-50
2021/05/31 04:02:42;;;;;;;3.78;3.40;;;18.10;95.60;;;;;;5012876;28;20054;-53
2021/05/31 04:05:13;;;;;;;5.47;3.47;;;18.00;95.40;;;;;;5012974;28;20033;-56
2021/05/31 04:13:11;;;;;;;3.80;3.38;;;17.90;96.00;;;;;;5013177;28;20033;-58
2021/05/31 04:15:38;;;;;;;6.18;4.45;;;18.10;96.00;;;;;;5012916;28;20050;-58
2021/05/31 04:18:06;;;;;;;4.18;3.80;;;18.10;95.80;;;;;;5012822;28;20034;-57
2021/05/31 04:20:33;;;;;;;4.00;3.60;;;18.10;96.00;;;;;;5012601;28;20053;-55
2021/05/31 04:23:00;;;;;;;4.63;3.63;;;18.10;95.60;;;;;;5012655;28;20029;-56
2021/05/31 04:25:28;;;;;;;3.30;3.00;;;18.00;95.70;;;;;;5012863;28;20505;-54
2021/05/31 04:27:55;;;;;;;3.63;3.25;;;17.90;95.60;;;;;;5012758;28;20021;-56
2021/05/31 04:30:23;;;;;;;4.72;3.10;;;17.90;96.10;;;;;;5012790;28;20141;-53
2021/05/31 04:32:51;;;;;;;5.40;3.47;;;17.90;95.30;;;;;;5012901;28;20029;-55
2021/05/31 04:35:18;;;;;;;3.72;3.35;;;17.90;95.70;;;;;;5012478;28;20029;-57
2021/05/31 04:37:46;;;;;;;5.40;3.80;;;18.00;95.60;;;;;;5012625;28;20041;-54
2021/05/31 04:40:14;;;;;;;4.75;3.45;;;17.90;95.40;;;;;;5012471;28;20117;-57
2021/05/31 04:42:41;;;;;;;3.88;3.40;;;17.80;95.20;;;;;;5012474;28;20077;-56
2021/05/31 04:45:09;;;;;;;6.53;3.80;;;17.80;95.40;;;;;;5012643;28;20126;-55
2021/05/31 04:47:36;;;;;;;6.00;4.40;;;17.80;97.50;;;;;;5012524;28;20018;-54
2021/05/31 04:50:04;;;;;;;10.05;4.70;;;17.80;98.20;;;;;;5012545;28;20030;-55
2021/05/31 04:52:32;;;;;;;8.18;4.75;;;17.70;98.80;;;;;;5012512;28;20030;-56
2021/05/31 04:54:59;;;;;;;15.05;5.35;;;17.50;99.00;;;;;;5012322;28;20109;-59
2021/05/31 04:57:26;;;;;;;5.72;3.92;;;17.50;99.60;;;;;;5012172;28;20033;-56
2021/05/31 04:59:53;;;;;;;8.45;4.20;;;17.50;99.40;;;;;;5012208;28;20498;-55
2021/05/31 05:02:21;;;;;;;12.13;5.05;;;17.40;99.40;;;;;;5012163;28;20447;-57
2021/05/31 05:04:48;;;;;;;5.20;4.00;;;17.40;99.30;;;;;;5012395;28;20029;-54
2021/05/31 05:07:17;;;;;;;9.85;4.40;;;17.30;99.60;;;;;;4996768;28;20077;-53
2021/05/31 05:09:44;;;;;;;11.90;4.78;;;17.30;99.90;;;;;;5015803;28;20439;-57
2021/05/31 05:12:11;;;;;;;7.28;4.60;;;17.30;99.70;;;;;;5015779;28;20025;-56
2021/05/31 05:14:39;;;;;;;6.55;4.43;;;17.30;99.70;;;;;;5015948;28;20497;-58
2021/05/31 05:17:06;;;;;;;5.38;4.18;;;17.30;99.90;;;;;;5015684;28;20376;-56
2021/05/31 05:19:33;;;;;;;13.13;4.30;;;17.10;99.90;;;;;;5015548;28;20030;-57
2021/05/31 05:22:01;;;;;;;7.53;4.18;;;17.00;99.90;;;;;;5015602;28;20030;-56
2021/05/31 05:24:29;;;;;;;9.25;4.40;;;17.00;99.90;;;;;;5015187;28;20368;-57
2021/05/31 05:26:56;;;;;;;7.75;4.75;;;17.00;99.90;;;;;;5015354;28;20026;-55
2021/05/31 05:29:23;;;;;;;8.60;4.68;;;16.90;99.90;;;;;;5015231;28;20073;-57
2021/05/31 05:31:51;;;;;;;6.78;4.47;;;16.90;99.90;;;;;;5015130;28;20050;-58
2021/05/31 05:34:18;;;;;;;5.20;4.65;;;16.80;99.90;;;;;;5015230;28;20026;-57
2021/05/31 05:36:56;;;;;;;6.72;4.55;;;16.70;99.90;;;;;;5015233;28;20040;-57
2021/05/31 05:49:43;;;;;;;6.50;5.03;;;16.50;99.90;;;;;;5015186;28;20018;-57
2021/05/31 05:52:11;;;;;;;7.20;4.38;;;16.50;99.90;;;;;;5015016;28;20334;-57
2021/05/31 05:54:38;;;;;;;7.82;4.05;;;16.40;99.90;;;;;;5014877;28;20505;-57
2021/05/31 05:57:07;;;;;;;5.75;4.05;;;16.30;99.90;;;;;;5014829;28;20118;-58
2021/05/31 05:59:34;;;;;;;9.57;4.25;;;16.20;99.90;;;;;;5014757;28;20079;-59
2021/05/31 06:02:02;;;;;;;7.22;4.68;;;16.20;99.90;;;;;;4997302;28;20033;-57
2021/05/31 06:04:29;;;;;;;6.50;3.83;;;16.00;99.90;;;;;;5014845;28;20018;-57
2021/05/31 06:06:57;;;;;;;6.60;4.50;;;16.00;99.90;;;;;;5015092;28;20014;-57
2021/05/31 06:09:24;;;;;;;5.18;4.13;;;15.90;99.90;;;;;;5014844;28;20057;-60
2021/05/31 06:11:52;;;;;;;7.95;4.05;;;15.80;99.90;;;;;;5014817;28;20030;-57
2021/05/31 06:14:19;;;;;;;5.55;4.18;;;15.80;99.90;;;;;;5014915;28;20026;-59
2021/05/31 06:16:47;;;;;;;5.45;4.88;;;15.70;99.90;;;;;;5014456;28;20113;-60
2021/05/31 06:19:14;;;;;;;5.35;4.85;;;15.60;99.90;;;;;;5014449;28;20037;-57
2021/05/31 06:21:41;;;;;;;8.48;4.82;;;15.50;99.90;;;;;;5014703;28;20026;-60
2021/05/31 06:24:11;;;;;;;8.70;4.68;;;15.40;99.90;;;;;;5014592;28;20060;-59
2021/05/31 06:26:38;;;;;;;5.32;4.82;;;15.30;99.90;;;;;;5014519;28;20100;-59
2021/05/31 06:29:06;;;;;;;7.47;5.43;;;15.10;99.90;;;;;;5014508;28;20025;-59
2021/05/31 06:31:33;;;;;;;8.38;5.60;;;15.00;99.90;;;;;;5014615;28;20108;-59
2021/05/31 06:34:01;;;;;;;6.90;5.45;;;14.80;99.90;;;;;;5014360;28;20032;-60
2021/05/31 06:36:30;;;;;;;7.72;5.35;;;14.70;99.90;;;;;;5014373;28;20018;-59
2021/05/31 06:38:57;;;;;;;14.13;6.15;;;14.60;99.90;;;;;;5014204;28;20501;-64
2021/05/31 06:41:24;;;;;;;6.53;5.80;;;14.60;99.90;;;;;;5014417;28;20018;-59
2021/05/31 06:43:52;;;;;;;7.75;6.45;;;14.50;99.90;;;;;;5014129;28;20030;-58
2021/05/31 06:46:19;;;;;;;6.95;6.18;;;14.40;99.90;;;;;;5014203;28;20072;-59
2021/05/31 06:48:46;;;;;;;7.03;6.07;;;14.20;99.90;;;;;;5014268;28;20105;-58
2021/05/31 06:51:14;;;;;;;7.10;6.50;;;14.10;99.90;;;;;;5014102;28;20084;-60
2021/05/31 06:53:41;;;;;;;6.47;5.78;;;14.00;99.90;;;;;;5014280;28;20026;-59
2021/05/31 06:56:08;;;;;;;7.60;6.43;;;13.90;99.90;;;;;;5014269;28;20443;-58
2021/05/31 06:58:36;;;;;;;8.15;6.97;;;13.80;99.90;;;;;;5014099;28;20494;-56
2021/05/31 07:01:03;;;;;;;9.02;6.47;;;13.70;99.90;;;;;;5014097;28;20462;-57
2021/05/31 07:03:31;;;;;;;7.35;6.65;;;13.60;99.90;;;;;;5013737;28;20029;-58
2021/05/31 07:05:58;;;;;;;7.82;7.10;;;13.50;99.90;;;;;;5013907;28;20467;-57
2021/05/31 07:08:26;;;;;;;8.05;7.45;;;13.40;99.90;;;;;;5013962;28;20021;-57
2021/05/31 07:10:56;;;;;;;7.80;7.10;;;13.40;99.90;;;;;;5013837;28;20026;-58
2021/05/31 07:13:24;;;;;;;8.32;7.68;;;13.30;99.90;;;;;;5013869;28;20045;-56
2021/05/31 07:15:56;;;;;;;9.85;8.27;;;13.20;99.90;;;;;;5013760;28;20061;-60
2021/05/31 07:18:24;;;;;;;8.40;7.80;;;13.20;99.90;;;;;;5013743;28;20053;-58
2021/05/31 07:20:53;;;;;;;9.48;8.60;;;13.10;99.90;;;;;;5013611;28;20030;-60
2021/05/31 07:23:21;;;;;;;10.35;9.40;;;13.10;99.90;;;;;;5013485;28;20032;-60
2021/05/31 07:25:48;;;;;;;10.30;9.50;;;13.00;99.90;;;;;;5013618;28;20483;-61
2021/05/31 07:28:19;;;;;;;10.38;9.50;;;13.00;99.90;;;;;;5013635;28;20022;-58
2021/05/31 07:30:46;;;;;;;11.25;10.25;;;13.00;99.90;;;;;;5013241;28;20029;-59
2021/05/31 07:33:14;;;;;;;11.30;10.40;;;13.00;99.90;;;;;;5013466;28;20510;-58
2021/05/31 07:35:42;;;;;;;11.13;10.23;;;13.00;99.90;;;;;;5013378;28;20038;-59
2021/05/31 07:38:10;;;;;;;11.52;10.60;;;12.90;99.90;;;;;;5013405;28;20058;-55
2021/05/31 07:40:37;;;;;;;10.70;10.10;;;12.80;99.90;;;;;;5013654;28;20026;-57
2021/05/31 07:43:05;;;;;;;11.30;10.60;;;12.70;99.90;;;;;;4995886;28;20033;-60
2021/05/31 07:45:33;;;;;;;11.48;10.60;;;12.70;99.90;;;;;;5013318;28;20036;-60
2021/05/31 07:48:00;;;;;;;12.25;11.40;;;12.70;99.90;;;;;;5013421;28;20021;-57
2021/05/31 07:50:28;;;;;;;12.13;11.20;;;12.60;99.90;;;;;;5013432;28;20452;-57
2021/05/31 07:52:58;;;;;;;12.50;11.60;;;12.50;99.90;;;;;;5013248;28;20109;-58
2021/05/31 07:55:37;;;;;;;;;;;12.50;99.90;;;;;;5013795;28;20022;-59
2021/05/31 07:58:06;;;;;;;11.85;11.02;;;12.50;99.90;;;;;;5013276;28;20281;-61
2021/05/31 08:00:33;;;;;;;13.43;12.30;;;12.50;99.90;;;;;;5013124;28;20424;-59
2021/05/31 08:03:01;;;;;;;14.40;13.30;;;12.40;99.90;;;;;;5013580;28;20029;-59
2021/05/31 08:05:28;;;;;;;13.50;12.70;;;12.40;99.90;;;;;;5013278;28;20026;-61
2021/05/31 08:07:56;;;;;;;15.85;14.57;;;12.40;99.90;;;;;;5013117;28;20395;-60
2021/05/31 08:10:23;;;;;;;15.77;14.63;;;12.40;99.90;;;;;;5013184;28;20109;-59
2021/05/31 08:12:54;;;;;;;16.67;15.40;;;12.30;99.90;;;;;;5013141;28;20033;-59
2021/05/31 08:15:21;;;;;;;16.40;14.77;;;12.30;99.90;;;;;;5013148;28;20395;-59
2021/05/31 08:17:49;;;;;;;16.27;14.98;;;12.20;99.90;;;;;;5013235;28;20033;-57
2021/05/31 08:20:17;;;;;;;25.45;16.20;;;12.20;99.90;;;;;;5012876;28;20044;-59
2021/05/31 08:22:46;;;;;;;17.70;16.15;;;12.20;99.90;;;;;;5012764;28;20160;-60
2021/05/31 08:25:15;;;;;;;17.73;16.35;;;12.10;99.90;;;;;;5012910;28;20052;-59
2021/05/31 08:27:43;;;;;;;18.27;17.08;;;12.10;99.90;;;;;;5012915;28;20026;-56
2021/05/31 08:30:12;;;;;;;18.98;17.67;;;12.10;99.90;;;;;;5012792;28;20383;-58
2021/05/31 08:32:39;;;;;;;18.38;17.15;;;12.00;99.90;;;;;;5013077;28;20030;-57
2021/05/31 08:35:07;;;;;;;19.65;18.25;;;12.00;99.90;;;;;;5012895;28;20040;-60
2021/05/31 08:37:34;;;;;;;21.27;19.58;;;11.90;99.90;;;;;;5012918;28;20026;-55
2021/05/31 08:40:03;;;;;;;21.65;20.08;;;11.80;99.90;;;;;;5013072;28;20077;-58
2021/05/31 08:42:30;;;;;;;23.30;21.05;;;11.80;99.90;;;;;;5016561;28;20038;-59
2021/05/31 08:44:58;;;;;;;22.10;20.45;;;11.80;99.90;;;;;;5016663;28;20022;-53
2021/05/31 08:47:26;;;;;;;23.88;22.17;;;11.80;99.90;;;;;;5016461;28;20026;-57
2021/05/31 08:49:54;;;;;;;26.60;24.30;;;11.70;99.90;;;;;;5016887;28;20393;-59
2021/05/31 08:52:21;;;;;;;27.60;25.42;;;11.70;99.90;;;;;;5016382;28;20026;-59
2021/05/31 08:54:49;;;;;;;29.70;27.02;;;11.70;99.90;;;;;;4998918;28;20029;-59
2021/05/31 08:57:16;;;;;;;28.42;25.95;;;11.70;99.90;;;;;;5016439;28;20026;-55
2021/05/31 08:59:43;;;;;;;28.65;26.40;;;11.70;99.90;;;;;;5016165;28;20399;-60
2021/05/31 09:02:11;;;;;;;28.15;25.98;;;11.70;99.90;;;;;;5016343;28;20026;-60
2021/05/31 09:04:50;;;;;;;28.92;27.13;;;11.60;99.90;;;;;;5016281;28;20045;-58
2021/05/31 09:07:21;;;;;;;37.20;34.30;;;11.60;99.90;;;;;;5016020;28;20394;-60
2021/05/31 09:09:48;;;;;;;46.50;42.72;;;11.60;99.90;;;;;;5016313;28;20486;-59
2021/05/31 09:12:25;;;;;;;39.50;36.47;;;11.50;99.90;;;;;;5015963;28;20082;-60
2021/05/31 09:14:57;;;;;;;34.05;31.20;;;11.40;99.90;;;;;;5016059;28;20049;-59
2021/05/31 09:17:29;;;;;;;33.17;31.02;;;11.40;99.90;;;;;;5015906;28;20104;-58
2021/05/31 09:19:57;;;;;;;34.88;32.38;;;11.30;99.90;;;;;;5016235;28;20017;-54
2021/05/31 09:22:25;;;;;;;35.40;32.53;;;11.30;99.90;;;;;;5015677;28;20114;-56
2021/05/31 09:25:03;;;;;;;36.00;33.42;;;11.20;99.90;;;;;;5015816;28;20029;-57
2021/05/31 09:27:32;;;;;;;38.97;35.88;;;11.20;99.90;;;;;;5015947;28;20129;-58
2021/05/31 09:30:09;;;;;;;37.88;34.90;;;11.10;99.90;;;;;;5015841;28;20022;-57
2021/05/31 09:32:37;;;;;;;40.70;37.45;;;11.10;99.90;;;;;;5015887;28;20072;-57
2021/05/31 09:35:11;;;;;;;39.17;36.13;;;11.00;99.90;;;;;;5015780;28;20433;-57
2021/05/31 09:37:48;;;;;;;41.22;37.95;;;11.00;99.90;;;;;;5015761;28;20022;-56
2021/05/31 09:40:22;;;;;;;40.03;37.03;;;11.00;99.90;;;;;;5015749;28;20037;-57
2021/05/31 09:42:52;;;;;;;41.05;37.97;;;11.00;99.90;;;;;;5015471;28;20084;-54
2021/05/31 09:45:20;;;;;;;42.10;38.97;;;11.00;99.90;;;;;;5015635;28;20022;-55
2021/05/31 09:47:48;;;;;;;45.78;42.25;;;10.90;99.90;;;;;;5015490;28;20018;-58
2021/05/31 09:50:24;;;;;;;72.95;65.43;;;10.90;99.90;;;;;;5015315;28;20029;-57
2021/05/31 09:53:07;;;;;;;62.47;56.40;;;10.90;99.90;;;;;;5014535;28;20034;-54
2021/05/31 09:55:37;;;;;;;48.65;44.28;;;10.80;99.90;;;;;;5015457;28;20486;-51
2021/05/31 09:58:12;;;;;;;44.53;40.65;;;10.80;99.90;;;;;;5014888;28;20025;-51
2021/05/31 10:00:41;;;;;;;44.50;41.03;;;10.80;99.90;;;;;;5015129;28;20026;-48
2021/05/31 10:03:28;;;;;;;44.80;41.20;;;10.70;99.90;;;;;;5014926;28;20029;-50
2021/05/31 10:10:56;;;;;;;;;;;10.70;99.90;;;;;;5015276;28;20426;-54
2021/05/31 10:13:27;;;;;;;44.22;40.42;;;10.60;99.90;;;;;;5014875;28;19909;-53
2021/05/31 10:15:55;;;;;;;45.00;41.45;;;10.50;99.90;;;;;;5014721;28;20450;-54
2021/05/31 10:18:23;;;;;;;45.05;41.42;;;10.50;99.90;;;;;;5014780;28;20021;-49
2021/05/31 10:20:50;;;;;;;46.40;42.70;;;10.50;99.90;;;;;;5014556;28;20041;-52
2021/05/31 10:23:18;;;;;;;47.55;43.85;;;10.50;99.90;;;;;;5014596;28;20030;-52
2021/05/31 10:25:58;;;;;;;47.70;43.70;;;10.40;99.90;;;;;;5014490;28;20015;-53
2021/05/31 10:28:36;;;;;;;43.20;40.00;;;10.50;99.90;;;;;;5014771;28;20017;-49
2021/05/31 10:31:08;;;;;;;44.90;41.28;;;10.40;99.90;;;;;;5014382;28;20038;-51
2021/05/31 10:33:39;;;;;;;44.25;40.55;;;10.40;99.90;;;;;;5014457;28;20378;-52
2021/05/31 10:36:20;;;;;;;45.22;41.70;;;10.40;99.90;;;;;;5014368;28;20034;-53
2021/05/31 10:38:52;;;;;;;45.60;41.90;;;10.30;99.90;;;;;;5014406;28;20030;-50
2021/05/31 10:41:23;;;;;;;44.35;40.63;;;10.30;99.90;;;;;;5014422;28;20029;-51
2021/05/31 10:43:55;;;;;;;46.97;43.20;;;10.20;99.90;;;;;;5014209;28;20089;-52
2021/05/31 10:46:30;;;;;;;43.03;39.53;;;10.20;99.90;;;;;;5014252;28;20030;-55
2021/05/31 10:48:58;;;;;;;44.45;40.83;;;10.20;99.90;;;;;;5014081;28;20093;-53
2021/05/31 10:51:29;;;;;;;43.53;40.13;;;10.20;99.90;;;;;;5014094;28;20101;-54
2021/05/31 10:54:08;;;;;;;43.28;40.08;;;10.10;99.90;;;;;;5014075;28;20076;-54
2021/05/31 10:56:35;;;;;;;45.22;41.72;;;10.20;99.90;;;;;;5014179;28;20487;-53
2021/05/31 10:59:03;;;;;;;45.08;41.35;;;10.20;99.90;;;;;;5013831;28;20046;-54
2021/05/31 11:01:33;;;;;;;43.67;40.58;;;10.10;99.90;;;;;;5014201;28;20502;-55
2021/05/31 11:04:04;;;;;;;44.08;40.72;;;10.10;99.90;;;;;;5013991;28;20018;-55
2021/05/31 11:06:42;;;;;;;43.78;40.42;;;10.00;99.90;;;;;;5013946;28;20026;-58
2021/05/31 11:09:19;;;;;;;42.15;38.63;;;10.10;99.90;;;;;;5013853;28;20080;-57
2021/05/31 11:11:55;;;;;;;44.30;40.95;;;10.10;99.90;;;;;;5013939;28;20022;-57
2021/05/31 11:14:39;;;;;;;46.50;42.75;;;10.10;99.90;;;;;;5013977;28;20360;-53
2021/05/31 11:17:18;;;;;;;48.05;44.47;;;10.10;99.90;;;;;;5013944;28;20030;-57
2021/05/31 11:19:48;;;;;;;48.65;44.78;;;10.10;99.90;;;;;;5013788;28;20032;-57
2021/05/31 11:22:33;;;;;;;48.78;44.67;;;10.10;99.90;;;;;;5013707;28;20079;-58
2021/05/31 11:25:05;;;;;;;49.90;45.95;;;10.10;99.90;;;;;;5013656;28;20029;-57
2021/05/31 11:27:42;;;;;;;49.00;44.83;;;10.10;99.90;;;;;;5013584;28;20093;-57
2021/05/31 11:30:18;;;;;;;48.63;44.63;;;10.00;99.90;;;;;;5013750;28;20049;-54
2021/05/31 11:32:46;;;;;;;47.90;44.08;;;10.00;99.90;;;;;;5013640;28;20026;-55
2021/05/31 11:35:15;;;;;;;47.80;44.03;;;9.90;99.90;;;;;;5013498;28;20537;-55
2021/05/31 11:37:43;;;;;;;48.72;44.58;;;9.90;99.90;;;;;;5013929;28;20530;-57
2021/05/31 11:40:28;;;;;;;55.80;51.55;;;9.80;99.90;;;;;;5013439;28;20034;-55
2021/05/31 11:42:58;;;;;;;49.20;45.20;;;9.80;99.90;;;;;;5013278;28;20088;-55
2021/05/31 11:45:27;;;;;;;50.47;46.70;;;9.70;99.90;;;;;;4995850;28;20479;-54
2021/05/31 11:48:01;;;;;;;51.15;47.17;;;9.70;99.90;;;;;;5013468;28;20018;-58
2021/05/31 11:50:30;;;;;;;54.20;49.92;;;9.70;99.90;;;;;;5013205;28;20026;-57
2021/05/31 11:52:57;;;;;;;52.05;48.25;;;9.70;99.90;;;;;;5013202;28;20033;-57
2021/05/31 11:55:27;;;;;;;54.03;50.00;;;9.60;99.90;;;;;;5013378;28;20034;-58
2021/05/31 11:57:55;;;;;;;54.53;50.17;;;9.60;99.90;;;;;;5013515;28;20422;-56
2021/05/31 12:00:31;;;;;;;57.10;52.90;;;9.60;99.90;;;;;;5013224;28;20042;-56
2021/05/31 12:03:01;;;;;;;56.53;52.05;;;9.60;99.90;;;;;;5013150;28;20129;-56
2021/05/31 12:05:32;;;;;;;58.35;54.05;;;9.60;99.90;;;;;;5012982;28;20022;-58
2021/05/31 12:08:12;;;;;;;57.83;53.47;;;9.60;99.90;;;;;;5012971;28;20048;-57
2021/05/31 12:10:45;;;;;;;60.67;56.13;;;9.60;99.90;;;;;;5013059;28;20034;-56
2021/05/31 12:13:13;;;;;;;61.95;57.42;;;9.60;99.90;;;;;;5013291;28;20022;-56
2021/05/31 12:15:41;;;;;;;63.38;58.50;;;9.60;99.90;;;;;;5014701;28;20061;-56
2021/05/31 12:18:19;;;;;;;62.08;57.78;;;9.50;99.90;;;;;;5017115;28;20034;-57
2021/05/31 12:20:47;;;;;;;63.60;59.40;;;9.50;99.90;;;;;;5016823;28;20475;-54
2021/05/31 12:23:22;;;;;;;57.50;53.10;;;9.40;99.90;;;;;;5016986;28;20390;-57
2021/05/31 12:25:52;;;;;;;59.25;54.85;;;9.40;99.90;;;;;;5016903;28;20026;-57
2021/05/31 12:28:20;;;;;;;60.45;56.15;;;9.40;99.90;;;;;;5017243;28;20116;-55
2021/05/31 12:30:49;;;;;;;61.58;57.08;;;9.40;99.90;;;;;;5017129;28;20049;-55
2021/05/31 12:33:17;;;;;;;57.92;53.38;;;9.30;99.90;;;;;;5016859;28;20026;-55
2021/05/31 12:35:50;;;;;;;52.28;48.08;;;9.30;99.90;;;;;;5016711;28;20030;-55
2021/05/31 12:38:21;;;;;;;51.88;47.65;;;9.30;99.90;;;;;;5016815;28;20033;-56
2021/05/31 12:40:54;;;;;;;51.10;46.95;;;9.20;99.90;;;;;;5016817;28;20030;-54
2021/05/31 12:43:32;;;;;;;60.42;56.00;;;9.30;99.90;;;;;;5016599;28;20038;-57
2021/05/31 12:46:00;;;;;;;58.60;53.95;;;9.30;99.90;;;;;;5016747;28;20018;-57
2021/05/31 12:48:28;;;;;;;57.03;52.38;;;9.40;99.90;;;;;;5016597;28;20026;-56
2021/05/31 12:51:12;;;;;;;58.38;54.13;;;9.40;99.90;;;;;;5016285;28;20033;-53
2021/05/31 12:53:40;;;;;;;58.42;53.45;;;9.40;99.90;;;;;;5016336;28;20033;-54
2021/05/31 12:56:08;;;;;;;60.58;55.88;;;9.40;99.90;;;;;;5016111;28;20025;-48
2021/05/31 12:58:35;;;;;;;59.35;54.72;;;9.30;99.90;;;;;;5015870;28;20037;-51
2021/05/31 13:01:03;;;;;;;57.63;53.33;;;9.40;99.90;;;;;;5016419;28;20113;-56
2021/05/31 13:03:33;;;;;;;59.35;54.75;;;9.30;99.90;;;;;;5016317;28;20388;-54
2021/05/31 13:06:03;;;;;;;63.05;58.60;;;9.40;99.90;;;;;;5016037;28;20368;-55
2021/05/31 13:08:42;;;;;;;59.95;55.45;;;9.40;99.90;;;;;;5016318;28;20100;-56
2021/05/31 13:11:10;;;;;;;61.75;56.83;;;9.30;99.90;;;;;;5016347;28;20037;-52
2021/05/31 13:13:39;;;;;;;62.70;58.10;;;9.40;99.90;;;;;;5016230;28;20394;-58
2021/05/31 13:16:10;;;;;;;59.97;55.60;;;9.40;99.90;;;;;;5016112;28;20104;-57